createdAt,value
2018-07-06T00:02:26.449Z,81.00
2018-07-06T00:05:06.256Z,81.30
2018-07-06T00:07:46.147Z,81.40
2018-07-06T00:10:26.056Z,81.40
2018-07-06T00:13:05.945Z,81.30
2018-07-06T00:15:45.879Z,81.70
2018-07-06T00:18:25.692Z,81.70
2018-07-06T00:21:05.468Z,81.90
2018-07-06T00:23:45.234Z,82.10
2018-07-06T00:26:24.942Z,82.30
2018-07-06T00:29:04.679Z,82.50
2018-07-06T00:31:44.379Z,83.00
2018-07-06T00:34:24.729Z,83.40
2018-07-06T00:37:04.510Z,83.90
2018-07-06T00:39:44.427Z,84.00
2018-07-06T00:42:24.212Z,84.30
2018-07-06T00:45:04.085Z,84.30
2018-07-06T00:47:44.017Z,84.90
2018-07-06T00:50:23.887Z,85.10
2018-07-06T00:53:03.766Z,85.30
2018-07-06T00:55:43.637Z,85.60
2018-07-06T00:58:23.880Z,85.90
2018-07-06T01:01:04.061Z,85.60
2018-07-06T01:03:43.945Z,85.70
2018-07-06T01:06:23.758Z,86.20
2018-07-06T01:09:03.721Z,86.20
2018-07-06T01:11:43.479Z,86.40
2018-07-06T01:14:23.242Z,86.20
2018-07-06T01:17:03.157Z,86.20
2018-07-06T01:19:43.033Z,86.60
2018-07-06T01:22:22.965Z,86.90
2018-07-06T01:25:03.037Z,86.40
2018-07-06T01:27:42.896Z,86.00
2018-07-06T01:30:23.003Z,86.60
2018-07-06T01:33:02.782Z,86.90
2018-07-06T01:35:42.580Z,86.70
2018-07-06T01:38:22.386Z,86.90
2018-07-06T01:41:02.178Z,87.20
2018-07-06T01:43:42.028Z,87.00
2018-07-06T01:46:21.913Z,87.30
2018-07-06T01:49:01.781Z,86.20
2018-07-06T01:51:42.200Z,86.10
2018-07-06T01:54:21.957Z,86.10
2018-07-06T01:57:01.880Z,86.40
2018-07-06T01:59:41.768Z,85.70
2018-07-06T02:02:21.812Z,85.80
2018-07-06T02:05:01.696Z,86.30
2018-07-06T02:07:41.574Z,86.60
2018-07-06T02:10:21.489Z,86.30
2018-07-06T02:13:01.363Z,86.60
2018-07-06T02:15:41.189Z,86.80
2018-07-06T02:18:21.004Z,86.90
2018-07-06T02:21:00.885Z,86.30
2018-07-06T02:23:40.590Z,86.30
2018-07-06T02:26:20.413Z,86.20
2018-07-06T02:29:00.306Z,85.80
2018-07-06T02:31:40.167Z,86.00
2018-07-06T02:34:20.560Z,86.10
2018-07-06T02:37:00.437Z,85.40
2018-07-06T02:39:40.198Z,85.30
2018-07-06T02:42:20.006Z,85.60
2018-07-06T02:44:59.809Z,86.20
2018-07-06T02:47:39.794Z,86.40
2018-07-06T02:50:19.691Z,86.50
2018-07-06T02:52:59.498Z,86.30
2018-07-06T02:55:42.320Z,86.20
2018-07-06T02:58:22.745Z,85.70
2018-07-06T03:01:02.825Z,85.40
2018-07-06T03:03:43.207Z,85.20
2018-07-06T03:06:23.206Z,84.40
2018-07-06T03:09:03.070Z,84.10
2018-07-06T03:11:42.887Z,84.10
2018-07-06T03:14:22.639Z,84.10
2018-07-06T03:17:02.587Z,84.30
2018-07-06T03:19:42.382Z,84.10
2018-07-06T03:22:22.205Z,84.30
2018-07-06T03:25:02.522Z,84.10
2018-07-06T03:27:42.420Z,84.00
2018-07-06T03:30:22.230Z,84.30
2018-07-06T03:33:01.974Z,84.50
2018-07-06T03:35:41.902Z,84.30
2018-07-06T03:38:21.705Z,84.30
2018-07-06T03:41:01.522Z,84.30
2018-07-06T03:43:41.396Z,84.30
2018-07-06T03:46:21.188Z,84.10
2018-07-06T03:49:01.082Z,84.30
2018-07-06T03:51:40.825Z,84.40
2018-07-06T03:54:20.626Z,84.70
2018-07-06T03:57:00.305Z,85.00
2018-07-06T03:59:40.240Z,85.00
2018-07-06T04:02:20.130Z,84.90
2018-07-06T04:04:59.979Z,85.00
2018-07-06T04:07:40.139Z,85.30
2018-07-06T04:10:19.949Z,85.60
2018-07-06T04:12:59.846Z,85.70
2018-07-06T04:15:39.734Z,85.50
2018-07-06T04:18:19.550Z,86.00
2018-07-06T04:20:59.331Z,86.20
2018-07-06T04:23:39.147Z,86.30
2018-07-06T04:26:19.040Z,86.50
2018-07-06T04:28:58.826Z,86.90
2018-07-06T04:31:38.635Z,86.80
2018-07-06T04:34:18.447Z,86.90
2018-07-06T04:36:58.212Z,86.90
2018-07-06T04:39:38.133Z,87.70
2018-07-06T04:42:18.449Z,87.80
2018-07-06T04:44:58.269Z,87.90
2018-07-06T04:47:38.063Z,88.10
2018-07-06T04:50:17.808Z,88.30
2018-07-06T04:52:57.630Z,88.30
2018-07-06T04:55:37.390Z,87.80
2018-07-06T04:58:17.116Z,87.50
2018-07-06T05:00:56.908Z,86.90
2018-07-06T05:03:36.769Z,86.80
2018-07-06T05:06:16.585Z,87.10
2018-07-06T05:08:56.362Z,87.30
2018-07-06T05:11:36.165Z,86.90
2018-07-06T05:14:16.105Z,86.90
2018-07-06T05:16:56.456Z,87.10
2018-07-06T05:19:36.382Z,86.90
2018-07-06T05:22:16.129Z,86.60
2018-07-06T05:24:55.833Z,86.40
2018-07-06T05:27:35.639Z,86.40
2018-07-06T05:30:15.832Z,86.60
2018-07-06T05:32:55.737Z,86.40
2018-07-06T05:35:35.551Z,86.20
2018-07-06T05:38:16.574Z,86.10
2018-07-06T05:40:56.486Z,86.10
2018-07-06T05:43:36.390Z,85.60
2018-07-06T05:46:16.418Z,85.90
2018-07-06T05:48:56.333Z,86.00
2018-07-06T05:51:36.265Z,85.80
2018-07-06T05:54:16.725Z,85.50
2018-07-06T05:56:56.637Z,85.30
2018-07-06T05:59:36.552Z,84.90
2018-07-06T06:02:16.325Z,84.50
2018-07-06T06:04:56.072Z,84.40
2018-07-06T06:07:25.288Z,85.00
2018-07-06T06:09:54.116Z,85.40
2018-07-06T06:12:22.624Z,85.50
2018-07-06T06:14:51.926Z,85.30
2018-07-06T06:17:21.339Z,85.80
2018-07-06T06:19:50.216Z,85.90
2018-07-06T06:22:19.345Z,86.00
2018-07-06T06:24:48.177Z,85.40
2018-07-06T06:27:16.820Z,85.30
2018-07-06T06:29:45.312Z,85.10
2018-07-06T06:32:13.797Z,85.10
2018-07-06T06:34:42.311Z,84.50
2018-07-06T06:37:10.782Z,84.00
2018-07-06T06:39:39.292Z,84.10
2018-07-06T06:42:07.781Z,84.70
2018-07-06T06:44:36.287Z,85.40
2018-07-06T06:47:04.777Z,85.60
2018-07-06T06:49:33.257Z,85.10
2018-07-06T06:52:01.749Z,84.80
2018-07-06T06:54:30.424Z,85.40
2018-07-06T06:56:58.977Z,86.20
2018-07-06T06:59:27.493Z,86.10
2018-07-06T07:01:55.998Z,86.30
2018-07-06T07:04:24.805Z,86.40
2018-07-06T07:06:53.373Z,86.30
2018-07-06T07:09:22.444Z,86.90
2018-07-06T07:11:51.270Z,87.40
2018-07-06T07:14:19.770Z,87.80
2018-07-06T07:16:48.595Z,87.60
2018-07-06T07:19:17.097Z,87.50
2018-07-06T07:21:46.650Z,88.10
2018-07-06T07:24:15.945Z,87.80
2018-07-06T07:26:44.465Z,87.70
2018-07-06T07:29:12.970Z,88.00
2018-07-06T07:31:41.532Z,88.10
2018-07-06T07:34:10.005Z,88.00
2018-07-06T07:36:38.818Z,88.30
2018-07-06T07:39:07.304Z,89.10
2018-07-06T07:41:35.800Z,88.70
2018-07-06T07:44:04.608Z,88.30
2018-07-06T07:46:33.108Z,88.20
2018-07-06T07:49:01.810Z,88.40
2018-07-06T07:52:11.485Z,87.90
2018-07-06T07:54:46.720Z,87.60
2018-07-06T07:57:15.636Z,87.20
2018-07-06T07:59:44.864Z,87.70
2018-07-06T08:02:13.653Z,86.80
2018-07-06T08:04:42.596Z,87.10
2018-07-06T08:07:12.226Z,88.00
2018-07-06T08:09:40.717Z,87.90
2018-07-06T08:12:09.889Z,87.90
2018-07-06T08:14:38.573Z,88.50
2018-07-06T08:17:07.727Z,88.80
2018-07-06T08:19:36.873Z,88.20
2018-07-06T08:22:05.363Z,87.80
2018-07-06T08:24:33.878Z,88.00
2018-07-06T08:27:02.758Z,88.30
2018-07-06T08:29:31.245Z,88.10
2018-07-06T08:32:00.059Z,88.30
2018-07-06T08:34:39.915Z,88.50
2018-07-06T08:37:29.862Z,88.20
2018-07-06T08:39:59.163Z,88.00
2018-07-06T08:42:29.964Z,87.60
2018-07-06T08:44:59.776Z,87.60
2018-07-06T08:47:29.315Z,87.30
2018-07-06T08:49:58.852Z,87.20
2018-07-06T08:52:27.849Z,87.50
2018-07-06T08:54:56.325Z,86.20
2018-07-06T08:57:26.592Z,86.80
2018-07-06T08:59:55.574Z,86.90
2018-07-06T09:02:24.795Z,85.90
2018-07-06T09:04:54.529Z,86.10
2018-07-06T09:07:23.654Z,86.00
2018-07-06T09:09:53.208Z,84.70
2018-07-06T09:12:21.704Z,85.90
2018-07-06T09:14:50.516Z,85.30
2018-07-06T09:17:20.134Z,84.80
2018-07-06T09:19:49.520Z,83.80
2018-07-06T09:22:18.437Z,83.50
2018-07-06T09:24:47.933Z,83.00
2018-07-06T09:27:17.087Z,83.00
2018-07-06T09:29:45.582Z,81.70
2018-07-06T09:32:14.089Z,80.60
2018-07-06T09:34:43.581Z,80.90
2018-07-06T09:37:12.271Z,79.50
2018-07-06T09:39:42.749Z,79.60
2018-07-06T09:42:11.692Z,80.00
2018-07-06T09:44:40.889Z,79.70
2018-07-06T09:47:09.709Z,80.10
2018-07-06T09:49:38.209Z,79.90
2018-07-06T09:52:06.707Z,80.00
2018-07-06T09:54:35.520Z,79.60
2018-07-06T09:57:04.392Z,80.40
2018-07-06T09:59:32.900Z,80.50
2018-07-06T10:02:01.749Z,79.10
2018-07-06T10:04:41.334Z,78.70
2018-07-06T10:07:12.012Z,78.70
2018-07-06T10:09:40.851Z,79.20
2018-07-06T10:12:09.700Z,77.90
2018-07-06T10:14:38.192Z,77.70
2018-07-06T10:17:07.382Z,77.10
2018-07-06T10:19:36.278Z,75.80
2018-07-06T10:22:05.399Z,75.00
2018-07-06T10:24:34.263Z,74.40
2018-07-06T10:27:03.145Z,72.40
2018-07-06T10:29:43.709Z,72.70
2018-07-06T10:32:18.725Z,73.20
2018-07-06T10:34:47.253Z,73.20
2018-07-06T10:37:16.713Z,72.90
2018-07-06T10:39:45.405Z,72.50
2018-07-06T10:42:14.446Z,71.90
2018-07-06T10:44:43.503Z,71.00
2018-07-06T10:47:12.529Z,71.60
2018-07-06T10:49:41.691Z,69.70
2018-07-06T10:52:11.122Z,70.30
2018-07-06T10:54:40.525Z,69.90
2018-07-06T10:57:09.721Z,69.10
2018-07-06T10:59:37.985Z,69.10
2018-07-06T11:02:06.297Z,68.80
2018-07-06T11:04:35.268Z,68.90
2018-07-06T11:07:03.743Z,68.80
2018-07-06T11:09:32.605Z,68.70
2018-07-06T11:12:01.189Z,68.90
2018-07-06T11:14:29.761Z,69.30
2018-07-06T11:16:58.289Z,69.80
2018-07-06T11:19:27.467Z,70.30
2018-07-06T11:21:56.018Z,69.90
2018-07-06T11:24:24.623Z,69.00
2018-07-06T11:26:53.165Z,68.70
2018-07-06T11:29:22.032Z,68.60
2018-07-06T11:31:50.268Z,68.30
2018-07-06T11:34:18.993Z,67.80
2018-07-06T11:36:48.045Z,67.70
2018-07-06T11:39:16.634Z,67.30
2018-07-06T11:41:45.221Z,67.70
2018-07-06T11:44:13.772Z,66.70
2018-07-06T11:46:42.353Z,66.20
2018-07-06T11:49:11.300Z,65.60
2018-07-06T11:51:39.873Z,65.50
2018-07-06T11:54:08.896Z,64.90
2018-07-06T11:56:37.474Z,65.80
2018-07-06T11:59:06.130Z,64.60
2018-07-06T12:01:35.372Z,65.30
2018-07-06T12:04:03.690Z,64.20
2018-07-06T12:06:32.423Z,65.30
2018-07-06T12:09:01.428Z,64.70
2018-07-06T12:11:30.357Z,64.60
2018-07-06T12:13:59.906Z,65.20
2018-07-06T12:16:28.340Z,65.20
2018-07-06T12:18:56.943Z,65.60
2018-07-06T12:21:26.204Z,65.80
2018-07-06T12:23:55.213Z,65.10
2018-07-06T12:26:24.765Z,65.30
2018-07-06T12:28:52.998Z,66.20
2018-07-06T12:31:22.592Z,65.80
2018-07-06T12:33:52.130Z,66.50
2018-07-06T12:36:20.367Z,66.60
2018-07-06T12:38:49.370Z,67.20
2018-07-06T12:41:18.265Z,67.60
2018-07-06T12:43:47.301Z,67.60
2018-07-06T12:46:15.537Z,67.60
2018-07-06T12:48:44.204Z,68.00
2018-07-06T12:51:12.575Z,68.20
2018-07-06T12:53:40.825Z,68.20
2018-07-06T12:56:09.477Z,67.90
2018-07-06T12:58:38.587Z,67.90
2018-07-06T13:01:06.950Z,68.70
2018-07-06T13:03:35.813Z,68.60
2018-07-06T13:06:04.378Z,68.40
2018-07-06T13:08:32.938Z,68.40
2018-07-06T13:11:01.162Z,68.80
2018-07-06T13:13:29.914Z,68.30
2018-07-06T13:15:59.015Z,68.60
2018-07-06T13:18:27.954Z,69.00
2018-07-06T13:20:57.458Z,69.40
2018-07-06T13:23:26.756Z,69.10
2018-07-06T13:25:55.264Z,69.30
2018-07-06T13:28:24.158Z,69.70
2018-07-06T13:30:52.838Z,69.80
2018-07-06T13:33:21.317Z,70.40
2018-07-06T13:35:50.150Z,70.40
2018-07-06T13:38:19.634Z,70.70
2018-07-06T13:40:48.578Z,70.50
2018-07-06T13:43:17.387Z,71.00
2018-07-06T13:45:46.542Z,71.80
2018-07-06T13:48:15.373Z,71.70
2018-07-06T13:50:45.668Z,71.80
2018-07-06T13:53:14.645Z,71.60
2018-07-06T13:55:43.142Z,72.20
2018-07-06T13:58:11.658Z,72.20
2018-07-06T14:00:40.852Z,72.70
2018-07-06T14:03:11.010Z,72.50
2018-07-06T14:05:40.222Z,72.90
2018-07-06T14:08:11.306Z,72.10
2018-07-06T14:10:40.237Z,72.60
2018-07-06T14:13:09.097Z,73.00
2018-07-06T14:15:38.289Z,73.00
2018-07-06T14:18:08.146Z,72.50
2018-07-06T14:20:37.673Z,72.50
2018-07-06T14:23:06.498Z,72.30
2018-07-06T14:25:35.321Z,72.60
2018-07-06T14:28:04.168Z,71.80
2018-07-06T14:30:32.549Z,72.60
2018-07-06T14:33:02.090Z,72.50
2018-07-06T14:35:31.230Z,72.10
2018-07-06T14:38:00.048Z,72.70
2018-07-06T14:40:28.569Z,72.50
2018-07-06T14:42:58.077Z,73.20
2018-07-06T14:45:26.313Z,73.00
2018-07-06T14:47:56.062Z,73.70
2018-07-06T14:50:24.361Z,73.70
2018-07-06T14:52:53.637Z,73.50
2018-07-06T14:55:22.341Z,74.00
2018-07-06T14:57:51.310Z,74.20
2018-07-06T15:00:20.499Z,74.80
2018-07-06T15:02:49.165Z,74.80
2018-07-06T15:05:18.452Z,74.70
2018-07-06T15:07:48.012Z,74.50
2018-07-06T15:10:17.157Z,74.70
2018-07-06T15:12:45.498Z,74.70
2018-07-06T15:15:13.877Z,75.10
2018-07-06T15:17:42.127Z,74.90
2018-07-06T15:20:10.438Z,74.80
2018-07-06T15:22:39.529Z,75.00
2018-07-06T15:25:08.077Z,75.20
2018-07-06T15:27:36.691Z,75.80
2018-07-06T15:30:05.239Z,75.50
2018-07-06T15:32:34.071Z,75.90
2018-07-06T15:35:02.335Z,76.00
2018-07-06T15:37:30.831Z,76.10
2018-07-06T15:39:59.423Z,76.20
2018-07-06T15:42:28.826Z,76.60
2018-07-06T15:44:57.637Z,76.90
2018-07-06T15:47:27.310Z,76.10
2018-07-06T15:49:56.166Z,76.20
2018-07-06T15:52:25.342Z,75.40
2018-07-06T15:54:54.645Z,75.60
2018-07-06T15:57:22.930Z,74.60
2018-07-06T15:59:51.503Z,74.70
2018-07-06T16:02:21.094Z,75.00
2018-07-06T16:04:50.306Z,74.90
2018-07-06T16:07:19.389Z,74.30
2018-07-06T16:09:51.090Z,74.40
2018-07-06T16:12:20.322Z,73.80
2018-07-06T16:14:49.182Z,73.60
2018-07-06T16:17:18.352Z,72.90
2018-07-06T16:19:46.905Z,72.60
2018-07-06T16:22:15.218Z,73.00
2018-07-06T16:24:44.401Z,72.90
2018-07-06T16:27:13.565Z,73.20
2018-07-06T16:29:45.568Z,73.20
2018-07-06T16:32:14.061Z,73.20
2018-07-06T16:34:42.589Z,73.30
2018-07-06T16:37:11.669Z,73.00
2018-07-06T16:39:40.847Z,72.60
2018-07-06T16:42:09.444Z,72.00
2018-07-06T16:44:37.694Z,72.10
2018-07-06T16:47:06.186Z,71.90
2018-07-06T16:49:35.005Z,72.40
2018-07-06T16:52:04.194Z,72.10
2018-07-06T16:54:33.038Z,72.10
2018-07-06T16:57:01.850Z,72.00
2018-07-06T16:59:30.081Z,72.10
2018-07-06T17:01:58.326Z,72.30
2018-07-06T17:04:26.549Z,72.20
2018-07-06T17:06:55.149Z,72.40
2018-07-06T17:09:23.721Z,72.20
2018-07-06T17:11:53.234Z,72.50
2018-07-06T17:14:21.593Z,72.00
2018-07-06T17:16:51.198Z,71.90
2018-07-06T17:19:19.820Z,71.60
2018-07-06T17:21:48.857Z,71.70
2018-07-06T17:24:17.701Z,71.80
2018-07-06T17:26:46.712Z,72.10
2018-07-06T17:29:15.538Z,73.00
2018-07-06T17:31:44.130Z,72.50
2018-07-06T17:34:12.700Z,72.30
2018-07-06T17:36:40.989Z,71.90
2018-07-06T17:39:09.856Z,72.00
2018-07-06T17:41:39.210Z,72.00
2018-07-06T17:44:07.781Z,71.90
2018-07-06T17:46:36.333Z,71.90
2018-07-06T17:49:05.169Z,72.10
2018-07-06T17:51:33.721Z,72.40
2018-07-06T17:54:04.272Z,72.40
2018-07-06T17:56:33.131Z,72.70
2018-07-06T17:59:01.984Z,72.50
2018-07-06T18:01:31.137Z,72.30
2018-07-06T18:03:59.984Z,72.60
2018-07-06T18:06:29.303Z,72.70
2018-07-06T18:08:57.538Z,71.50
2018-07-06T18:11:26.464Z,71.50
2018-07-06T18:13:55.009Z,72.10
2018-07-06T18:16:24.480Z,71.70
2018-07-06T18:18:53.177Z,72.00
2018-07-06T18:21:21.694Z,72.00
2018-07-06T18:23:50.246Z,72.00
2018-07-06T18:26:19.066Z,72.20
2018-07-06T18:28:47.901Z,72.60
2018-07-06T18:31:16.413Z,72.30
2018-07-06T18:33:45.265Z,72.50
2018-07-06T18:36:13.742Z,72.70
2018-07-06T18:38:42.566Z,72.80
2018-07-06T18:41:11.429Z,72.90
2018-07-06T18:43:40.236Z,72.60
2018-07-06T18:46:08.737Z,72.60
2018-07-06T18:48:37.498Z,72.20
2018-07-06T18:51:06.866Z,72.10
2018-07-06T18:53:35.717Z,70.10
2018-07-06T18:56:04.626Z,68.60
2018-07-06T18:58:33.517Z,68.00
2018-07-06T19:01:02.363Z,67.80
2018-07-06T19:03:31.172Z,67.60
2018-07-06T19:06:00.024Z,67.60
2018-07-06T19:08:29.175Z,67.50
2018-07-06T19:10:58.057Z,66.90
2018-07-06T19:13:26.623Z,67.20
2018-07-06T19:15:55.477Z,67.10
2018-07-06T19:18:24.310Z,67.20
2018-07-06T19:20:53.194Z,67.30
2018-07-06T19:23:22.029Z,67.30
2018-07-06T19:25:51.488Z,67.10
2018-07-06T19:28:20.689Z,67.30
2018-07-06T19:30:49.609Z,67.50
2018-07-06T19:33:18.653Z,67.60
2018-07-06T19:35:47.178Z,68.50
2018-07-06T19:38:16.457Z,67.90
2018-07-06T19:40:45.532Z,68.00
2018-07-06T19:43:14.367Z,68.10
2018-07-06T19:45:43.586Z,68.40
2018-07-06T19:48:12.428Z,68.80
2018-07-06T19:50:40.981Z,69.00
2018-07-06T19:53:10.042Z,69.20
2018-07-06T19:55:38.948Z,69.50
2018-07-06T19:58:08.449Z,69.80
2018-07-06T20:00:37.270Z,70.00
2018-07-06T20:03:06.133Z,70.20
2018-07-06T20:05:35.895Z,70.30
2018-07-06T20:11:05.489Z,70.30
2018-07-06T20:13:34.377Z,70.60
2018-07-06T20:16:02.881Z,70.40
2018-07-06T20:18:32.203Z,70.60
2018-07-06T20:21:00.949Z,71.00
2018-07-06T20:23:30.330Z,71.30
2018-07-06T20:25:59.584Z,71.70
2018-07-06T20:28:28.478Z,72.00
2018-07-06T20:30:57.345Z,72.50
2018-07-06T20:33:26.200Z,72.90
2018-07-06T20:35:55.536Z,73.30
2018-07-06T20:38:25.009Z,73.70
2018-07-06T20:40:55.181Z,73.90
2018-07-06T20:43:23.721Z,74.10
2018-07-06T20:45:53.114Z,74.00
2018-07-06T20:48:21.593Z,74.00
2018-07-06T20:50:50.437Z,74.50
2018-07-06T20:53:19.181Z,74.70
2018-07-06T20:55:48.425Z,74.80
2018-07-06T20:58:16.991Z,75.10
2018-07-06T21:00:45.510Z,75.00
2018-07-06T21:03:14.363Z,75.30
2018-07-06T21:05:43.122Z,75.50
2018-07-06T21:08:11.915Z,75.60
2018-07-06T21:10:41.235Z,75.80
2018-07-06T21:13:10.214Z,75.70
2018-07-06T21:15:38.722Z,76.00
2018-07-06T21:18:07.277Z,76.10
2018-07-06T21:20:36.767Z,76.20
2018-07-06T21:23:07.031Z,76.40
2018-07-06T21:25:35.957Z,76.60
2018-07-06T21:28:04.517Z,76.50
2018-07-06T21:30:33.760Z,76.70
2018-07-06T21:33:03.751Z,77.00
2018-07-06T21:35:33.401Z,77.20
2018-07-06T21:38:01.906Z,77.20
2018-07-06T21:40:30.964Z,77.00
2018-07-06T21:43:01.759Z,77.40
2018-07-06T21:45:30.865Z,77.60
2018-07-06T21:47:59.961Z,77.70
2018-07-06T21:50:28.832Z,77.60
2018-07-06T21:52:59.389Z,77.20
2018-07-06T21:55:28.609Z,77.50
2018-07-06T21:57:57.444Z,77.50
2018-07-06T22:00:35.836Z,77.60
2018-07-06T22:03:04.363Z,77.50
2018-07-06T22:05:33.462Z,77.60
2018-07-06T22:08:02.958Z,77.90
2018-07-06T22:10:32.519Z,77.70
2018-07-06T22:13:00.985Z,77.60
2018-07-06T22:15:34.450Z,77.90
2018-07-06T22:18:03.330Z,77.70
2018-07-06T22:20:32.497Z,77.90
2018-07-06T22:23:01.310Z,77.70
2018-07-06T22:25:31.165Z,77.70
2018-07-06T22:28:00.029Z,78.00
2018-07-06T22:30:29.237Z,78.00
2018-07-06T22:32:58.097Z,78.00
2018-07-06T22:35:27.017Z,77.90
2018-07-06T22:37:56.218Z,78.00
2018-07-06T22:40:25.118Z,78.10
2018-07-06T22:42:54.509Z,77.90
2018-07-06T22:45:23.412Z,78.10
2018-07-06T22:47:52.809Z,78.10
2018-07-06T22:50:22.662Z,78.20
2018-07-06T22:52:51.530Z,78.40
2018-07-06T22:55:20.027Z,78.30
2018-07-06T22:57:49.777Z,78.60
2018-07-06T23:00:19.229Z,78.70
2018-07-06T23:02:47.733Z,78.70
2018-07-06T23:05:17.833Z,78.70
2018-07-06T23:07:46.464Z,78.10
2018-07-06T23:10:15.007Z,77.80
2018-07-06T23:12:43.829Z,77.70
2018-07-06T23:15:12.564Z,77.20
2018-07-06T23:17:41.835Z,77.20
2018-07-06T23:20:10.674Z,77.20
2018-07-06T23:23:16.434Z,77.20
2018-07-06T23:25:45.985Z,76.80
2018-07-06T23:28:16.495Z,76.40
2018-07-06T23:30:45.028Z,76.00
2018-07-06T23:33:13.877Z,76.20
2018-07-06T23:35:43.226Z,76.00
2018-07-06T23:38:13.223Z,76.40
2018-07-06T23:40:42.207Z,76.60
2018-07-06T23:43:11.025Z,76.80
2018-07-06T23:45:40.181Z,76.60
2018-07-06T23:48:08.706Z,76.00
2018-07-06T23:50:37.882Z,75.90
2018-07-06T23:53:07.606Z,76.00
2018-07-06T23:55:36.482Z,76.00
2018-07-06T23:58:05.190Z,75.80
